createdAt,value
2022-10-20T00:00:17.969Z,0.63
2022-10-20T00:02:45.960Z,1.05
2022-10-20T00:05:19.300Z,0.50
2022-10-20T00:10:22.095Z,0.40
2022-10-20T00:12:52.808Z,0.70
2022-10-20T00:15:20.797Z,0.50
2022-10-20T00:17:51.731Z,0.50
2022-10-20T00:20:19.635Z,0.50
2022-10-20T00:22:47.890Z,0.68
2022-10-20T00:25:16.904Z,0.40
2022-10-20T00:27:46.341Z,0.90
2022-10-20T00:30:13.808Z,0.47
2022-10-20T00:32:41.426Z,0.63
2022-10-20T00:35:09.187Z,0.70
2022-10-20T00:37:41.046Z,0.77
2022-10-20T00:40:11.305Z,1.10
2022-10-20T00:42:39.586Z,1.10
2022-10-20T00:45:13.826Z,1.00
2022-10-20T00:47:53.328Z,1.00
2022-10-20T00:50:42.868Z,0.98
2022-10-20T00:53:11.670Z,1.10
2022-10-20T00:55:42.652Z,1.00
2022-10-20T00:58:12.415Z,1.05
2022-10-20T01:00:44.534Z,0.90
2022-10-20T01:03:20.793Z,1.10
2022-10-20T01:08:22.222Z,1.40
2022-10-20T01:11:05.628Z,1.50
2022-10-20T01:13:44.431Z,1.98
2022-10-20T01:16:30.124Z,2.30
2022-10-20T01:19:13.088Z,2.25
2022-10-20T01:22:11.974Z,3.22
2022-10-20T01:24:40.110Z,2.78
2022-10-20T01:27:34.193Z,2.55
2022-10-20T01:30:20.024Z,3.00
2022-10-20T01:32:51.094Z,2.85
2022-10-20T01:35:19.582Z,2.63
2022-10-20T01:38:17.159Z,3.28
2022-10-20T01:41:03.150Z,2.78
2022-10-20T01:43:35.794Z,2.30
2022-10-20T01:46:07.274Z,2.63
2022-10-20T01:48:38.986Z,2.70
2022-10-20T01:51:09.420Z,2.25
2022-10-20T01:53:39.739Z,2.95
2022-10-20T01:56:19.015Z,2.55
2022-10-20T01:59:01.561Z,3.00
2022-10-20T02:01:57.385Z,2.65
2022-10-20T02:04:47.810Z,3.03
2022-10-20T02:07:25.111Z,2.30
2022-10-20T02:09:56.368Z,2.83
2022-10-20T02:12:29.468Z,2.65
2022-10-20T02:14:57.200Z,2.75
2022-10-20T02:17:24.939Z,2.55
2022-10-20T02:19:53.819Z,2.90
2022-10-20T02:22:27.855Z,2.75
2022-10-20T02:24:58.883Z,2.85
2022-10-20T02:27:32.723Z,2.80
2022-10-20T02:30:05.378Z,3.13
2022-10-20T02:32:34.274Z,2.80
2022-10-20T02:35:07.892Z,2.72
2022-10-20T02:37:36.249Z,2.50
2022-10-20T02:40:08.389Z,2.40
2022-10-20T02:42:37.707Z,2.53
2022-10-20T02:45:07.113Z,2.83
2022-10-20T02:47:35.582Z,2.40
2022-10-20T02:50:07.720Z,3.00
2022-10-20T02:52:35.863Z,2.53
2022-10-20T02:55:03.723Z,2.60
2022-10-20T02:57:34.637Z,2.78
2022-10-20T03:00:02.923Z,2.50
2022-10-20T03:05:00.206Z,2.35
2022-10-20T03:07:28.827Z,2.67
2022-10-20T03:12:28.897Z,1.85
2022-10-20T03:14:59.015Z,2.03
2022-10-20T03:17:26.931Z,2.15
2022-10-20T03:19:54.442Z,2.28
2022-10-20T03:22:22.043Z,2.40
2022-10-20T03:24:49.426Z,2.03
2022-10-20T03:27:19.608Z,1.83
2022-10-20T03:32:14.787Z,1.70
2022-10-20T03:34:45.027Z,1.90
2022-10-20T03:37:12.460Z,1.85
2022-10-20T03:39:40.543Z,1.65
2022-10-20T03:42:11.175Z,1.70
2022-10-20T03:44:40.067Z,1.92
2022-10-20T03:47:11.693Z,1.70
2022-10-20T03:49:39.316Z,1.52
2022-10-20T03:52:07.012Z,1.63
2022-10-20T03:54:36.511Z,1.70
2022-10-20T03:57:06.978Z,1.50
2022-10-20T03:59:37.914Z,1.40
2022-10-20T04:02:05.813Z,1.63
2022-10-20T04:04:33.728Z,1.27
2022-10-20T04:07:01.596Z,1.75
2022-10-20T04:09:32.940Z,1.50
2022-10-20T04:12:01.224Z,1.88
2022-10-20T04:14:29.151Z,1.45
2022-10-20T04:16:56.821Z,1.45
2022-10-20T04:19:24.739Z,1.30
2022-10-20T04:21:59.371Z,1.58
2022-10-20T04:24:27.387Z,1.40
2022-10-20T04:27:20.141Z,1.27
2022-10-20T04:29:48.626Z,1.00
2022-10-20T04:32:16.436Z,1.27
2022-10-20T04:34:44.089Z,1.30
2022-10-20T04:37:16.196Z,1.35
2022-10-20T04:39:44.080Z,1.30
2022-10-20T04:42:13.248Z,1.40
2022-10-20T04:44:40.988Z,1.40
2022-10-20T04:47:08.752Z,1.50
2022-10-20T04:49:36.637Z,1.63
2022-10-20T04:52:04.673Z,1.50
2022-10-20T04:54:32.653Z,1.40
2022-10-20T04:57:00.751Z,1.23
2022-10-20T04:59:28.480Z,1.20
2022-10-20T05:01:58.563Z,1.10
2022-10-20T05:04:26.099Z,0.95
2022-10-20T05:06:53.325Z,1.38
2022-10-20T05:09:21.068Z,1.00
2022-10-20T05:11:48.816Z,1.20
2022-10-20T05:14:16.770Z,1.20
2022-10-20T05:16:44.449Z,0.90
2022-10-20T05:19:21.518Z,0.98
2022-10-20T05:21:49.213Z,1.13
2022-10-20T05:24:21.544Z,1.55
2022-10-20T05:26:53.546Z,1.45
2022-10-20T05:29:22.657Z,1.50
2022-10-20T05:31:50.990Z,1.23
2022-10-20T05:34:21.370Z,1.40
2022-10-20T05:39:16.277Z,1.20
2022-10-20T05:41:50.981Z,1.23
2022-10-20T05:44:21.070Z,1.23
2022-10-20T05:46:51.965Z,0.90
2022-10-20T05:49:23.576Z,1.33
2022-10-20T05:51:51.224Z,1.10
2022-10-20T05:54:18.884Z,1.20
2022-10-20T05:56:48.257Z,1.30
2022-10-20T05:59:23.238Z,1.30
2022-10-20T06:01:52.911Z,1.00
2022-10-20T06:04:28.128Z,1.08
2022-10-20T06:07:01.673Z,1.08
2022-10-20T06:09:29.866Z,1.10
2022-10-20T06:11:59.829Z,1.20
2022-10-20T06:14:29.953Z,1.13
2022-10-20T06:16:57.637Z,1.05
2022-10-20T06:19:25.485Z,1.17
2022-10-20T06:21:53.785Z,1.15
2022-10-20T06:24:25.547Z,1.17
2022-10-20T06:26:53.253Z,1.20
2022-10-20T06:29:20.745Z,1.20
2022-10-20T06:32:01.444Z,1.15
2022-10-20T06:34:28.937Z,1.50
2022-10-20T06:36:59.630Z,1.35
2022-10-20T06:39:27.023Z,1.30
2022-10-20T06:41:55.235Z,1.17
2022-10-20T06:44:25.245Z,1.30
2022-10-20T06:46:54.704Z,1.15
2022-10-20T06:49:27.677Z,1.60
2022-10-20T06:51:54.886Z,1.40
2022-10-20T06:54:22.736Z,1.08
2022-10-20T06:56:50.773Z,1.13
2022-10-20T06:59:20.588Z,1.35
2022-10-20T07:01:48.902Z,1.40
2022-10-20T07:04:16.736Z,1.60
2022-10-20T07:06:46.790Z,1.60
2022-10-20T07:09:24.619Z,1.20
2022-10-20T07:11:55.526Z,1.17
2022-10-20T07:14:39.514Z,1.17
2022-10-20T07:17:14.281Z,1.35
2022-10-20T07:19:41.802Z,1.25
2022-10-20T07:22:11.518Z,1.02
2022-10-20T07:24:44.678Z,1.17
2022-10-20T07:27:12.319Z,1.30
2022-10-20T07:29:42.486Z,1.02
2022-10-20T07:32:12.561Z,1.10
2022-10-20T07:34:40.554Z,1.38
2022-10-20T07:37:08.742Z,1.20
2022-10-20T07:39:36.524Z,1.10
2022-10-20T07:42:08.547Z,1.13
2022-10-20T07:44:37.075Z,1.20
2022-10-20T07:47:04.327Z,1.25
2022-10-20T07:49:49.713Z,1.30
2022-10-20T07:52:27.290Z,1.35
2022-10-20T07:55:17.358Z,1.10
2022-10-20T07:57:52.111Z,1.08
2022-10-20T08:00:23.345Z,1.42
2022-10-20T08:02:57.115Z,0.80
2022-10-20T08:05:27.643Z,0.90
2022-10-20T08:08:02.931Z,1.00
2022-10-20T08:10:31.202Z,1.13
2022-10-20T08:13:03.931Z,1.30
2022-10-20T08:15:37.540Z,1.10
2022-10-20T08:18:08.293Z,0.90
2022-10-20T08:21:09.691Z,1.02
2022-10-20T08:23:28.638Z,0.93
2022-10-20T08:26:00.090Z,1.05
2022-10-20T08:28:28.038Z,1.08
2022-10-20T08:30:55.987Z,1.00
2022-10-20T08:33:24.095Z,0.63
2022-10-20T08:35:51.932Z,0.95
2022-10-20T08:38:22.715Z,0.80
2022-10-20T08:40:50.030Z,0.80
2022-10-20T08:43:19.968Z,0.95
2022-10-20T08:45:48.727Z,0.80
2022-10-20T08:48:29.608Z,0.95
2022-10-20T08:51:01.448Z,0.80
2022-10-20T08:53:40.095Z,1.00
2022-10-20T08:56:33.787Z,1.30
2022-10-20T08:59:03.771Z,0.68
2022-10-20T09:04:30.179Z,0.90
2022-10-20T09:07:01.915Z,0.80
2022-10-20T09:09:35.553Z,0.90
2022-10-20T09:12:13.541Z,0.82
2022-10-20T09:14:44.352Z,0.70
2022-10-20T09:17:26.160Z,0.77
2022-10-20T09:20:01.774Z,1.02
2022-10-20T09:22:36.169Z,0.80
2022-10-20T09:25:09.760Z,1.00
2022-10-20T09:27:41.864Z,0.65
2022-10-20T09:30:23.339Z,0.63
2022-10-20T09:32:54.377Z,0.70
2022-10-20T09:35:32.381Z,0.77
2022-10-20T09:38:19.419Z,0.73
2022-10-20T09:41:09.687Z,0.60
2022-10-20T09:43:53.170Z,0.60
2022-10-20T09:46:35.966Z,0.70
2022-10-20T09:49:06.154Z,0.50
2022-10-20T09:51:39.024Z,0.63
2022-10-20T09:54:19.905Z,0.60
2022-10-20T09:56:49.441Z,0.75
2022-10-20T10:01:57.882Z,0.93
2022-10-20T10:04:40.108Z,0.70
2022-10-20T10:07:29.801Z,0.70
2022-10-20T10:09:58.943Z,0.90
2022-10-20T10:12:40.203Z,0.85
2022-10-20T10:15:26.206Z,0.63
2022-10-20T10:17:57.328Z,0.80
2022-10-20T10:20:39.691Z,0.80
2022-10-20T10:23:21.102Z,1.10
2022-10-20T10:26:03.164Z,0.80
2022-10-20T10:29:02.260Z,0.73
2022-10-20T10:31:36.993Z,1.08
2022-10-20T10:34:16.992Z,0.90
2022-10-20T10:36:44.710Z,0.70
2022-10-20T10:39:21.777Z,0.73
2022-10-20T10:41:55.885Z,0.90
2022-10-20T10:44:53.305Z,0.82
2022-10-20T10:47:27.289Z,0.70
2022-10-20T10:50:37.597Z,1.20
2022-10-20T10:53:13.944Z,0.70
2022-10-20T10:56:28.038Z,0.90
2022-10-20T10:59:07.392Z,0.70
2022-10-20T11:01:58.548Z,0.77
2022-10-20T11:04:45.073Z,0.95
2022-10-20T11:07:35.950Z,0.70
2022-10-20T11:10:21.396Z,0.68
2022-10-20T11:13:26.231Z,0.77
2022-10-20T11:15:54.679Z,0.68
2022-10-20T11:18:57.336Z,0.77
2022-10-20T11:22:00.789Z,1.00
2022-10-20T11:24:43.085Z,0.90
2022-10-20T11:27:19.532Z,0.98
2022-10-20T11:30:02.848Z,0.90
2022-10-20T11:32:49.804Z,1.00
2022-10-20T11:35:21.438Z,1.10
2022-10-20T11:37:48.490Z,0.75
2022-10-20T11:40:22.204Z,1.08
2022-10-20T11:43:11.170Z,1.02
2022-10-20T11:46:08.596Z,1.10
2022-10-20T11:49:03.966Z,1.15
2022-10-20T11:51:49.166Z,1.13
2022-10-20T11:54:55.629Z,1.10
2022-10-20T11:58:05.568Z,1.10
2022-10-20T12:01:05.032Z,1.30
2022-10-20T12:04:07.498Z,1.02
2022-10-20T12:07:54.099Z,1.20
2022-10-20T12:10:44.819Z,1.33
2022-10-20T12:13:49.408Z,1.00
2022-10-20T12:17:16.493Z,0.90
2022-10-20T12:20:26.736Z,1.20
2022-10-20T12:23:02.550Z,1.20
2022-10-20T12:25:33.369Z,1.20
2022-10-20T12:28:28.955Z,1.05
2022-10-20T12:31:01.289Z,1.33
2022-10-20T12:34:11.190Z,0.90
2022-10-20T12:36:43.775Z,1.00
2022-10-20T12:39:32.261Z,1.23
2022-10-20T12:42:16.386Z,1.10
2022-10-20T12:44:50.534Z,1.20
2022-10-20T12:47:36.405Z,0.98
2022-10-20T12:50:20.738Z,1.10
2022-10-20T12:52:50.062Z,1.10
2022-10-20T12:55:27.570Z,1.05
2022-10-20T12:58:17.770Z,1.02
2022-10-20T13:00:48.038Z,0.90
2022-10-20T13:03:44.827Z,0.80
2022-10-20T13:06:25.920Z,1.10
2022-10-20T13:09:25.865Z,1.02
2022-10-20T13:12:03.855Z,1.05
2022-10-20T13:14:52.473Z,0.82
2022-10-20T13:20:02.854Z,1.02
2022-10-20T13:22:56.394Z,1.13
2022-10-20T13:25:40.795Z,0.98
2022-10-20T13:28:15.928Z,1.27
2022-10-20T13:30:59.891Z,0.90
2022-10-20T13:34:06.646Z,1.42
2022-10-20T13:37:21.682Z,1.05
2022-10-20T13:40:25.535Z,1.20
2022-10-20T13:43:29.845Z,1.15
2022-10-20T13:46:26.799Z,1.25
2022-10-20T13:49:10.413Z,1.10
2022-10-20T13:52:08.290Z,1.05
2022-10-20T13:54:58.958Z,1.23
2022-10-20T13:57:27.244Z,1.33
2022-10-20T14:00:04.572Z,1.30
2022-10-20T14:02:39.793Z,1.30
2022-10-20T14:05:15.454Z,1.05
2022-10-20T14:07:44.641Z,1.48
2022-10-20T14:10:48.539Z,1.20
2022-10-20T14:13:30.028Z,1.10
2022-10-20T14:16:00.806Z,1.23
2022-10-20T14:18:39.207Z,1.30
2022-10-20T14:21:15.906Z,1.40
2022-10-20T14:23:46.586Z,1.10
2022-10-20T14:26:21.655Z,1.30
2022-10-20T14:28:54.339Z,1.45
2022-10-20T14:31:24.470Z,1.20
2022-10-20T14:33:54.343Z,1.27
2022-10-20T14:36:34.216Z,1.65
2022-10-20T14:39:04.295Z,1.55
2022-10-20T14:41:35.481Z,1.13
2022-10-20T14:44:14.751Z,1.30
2022-10-20T14:47:17.969Z,1.30
2022-10-20T14:49:52.609Z,1.33
2022-10-20T14:52:56.867Z,1.30
2022-10-20T14:58:33.039Z,1.20
2022-10-20T15:01:19.903Z,1.02
2022-10-20T15:03:57.416Z,1.25
2022-10-20T15:06:32.072Z,1.58
2022-10-20T15:09:05.174Z,1.10
2022-10-20T15:11:33.095Z,1.25
2022-10-20T15:14:04.084Z,1.48
2022-10-20T15:16:49.411Z,1.30
2022-10-20T15:19:31.013Z,1.33
2022-10-20T15:22:18.854Z,1.50
2022-10-20T15:24:51.139Z,1.30
2022-10-20T15:27:24.103Z,1.52
2022-10-20T15:29:58.851Z,1.65
2022-10-20T15:32:26.905Z,1.55
2022-10-20T15:34:58.645Z,1.13
2022-10-20T15:37:31.852Z,1.35
2022-10-20T15:40:07.369Z,1.40
2022-10-20T15:42:35.079Z,1.40
2022-10-20T15:45:09.727Z,1.50
2022-10-20T15:47:44.807Z,1.33
2022-10-20T15:50:15.643Z,1.38
2022-10-20T15:52:50.477Z,1.23
2022-10-20T15:55:23.782Z,1.70
2022-10-20T16:00:31.963Z,1.55
2022-10-20T16:03:07.265Z,1.40
2022-10-20T16:05:35.534Z,1.50
2022-10-20T16:08:03.497Z,1.90
2022-10-20T16:10:34.569Z,2.05
2022-10-20T16:15:46.531Z,1.80
2022-10-20T16:18:14.444Z,1.50
2022-10-20T16:20:44.550Z,1.77
2022-10-20T16:23:15.199Z,1.65
2022-10-20T16:25:48.299Z,1.30
2022-10-20T16:28:18.831Z,1.80
2022-10-20T16:30:46.396Z,1.60
2022-10-20T16:33:14.049Z,1.90
2022-10-20T16:35:47.471Z,1.83
2022-10-20T16:38:15.012Z,1.88
2022-10-20T16:40:57.227Z,1.92
2022-10-20T16:43:25.174Z,2.05
2022-10-20T16:45:54.203Z,2.00
2022-10-20T16:48:22.265Z,2.17
2022-10-20T16:50:49.957Z,1.77
2022-10-20T16:53:21.854Z,1.80
2022-10-20T16:55:57.903Z,1.92
2022-10-20T17:00:58.683Z,1.83
2022-10-20T17:03:26.341Z,2.22
2022-10-20T17:06:02.519Z,2.00
2022-10-20T17:08:32.122Z,1.88
2022-10-20T17:11:02.193Z,1.95
2022-10-20T17:13:30.366Z,1.80
2022-10-20T17:16:06.405Z,1.73
2022-10-20T17:18:34.212Z,1.98
2022-10-20T17:21:01.767Z,2.10
2022-10-20T17:23:32.529Z,1.98
2022-10-20T17:26:02.392Z,1.83
2022-10-20T17:28:31.180Z,2.03
2022-10-20T17:31:02.183Z,2.13
2022-10-20T17:33:31.156Z,1.85
2022-10-20T17:36:04.053Z,2.17
2022-10-20T17:38:31.656Z,2.15
2022-10-20T17:41:06.788Z,2.35
2022-10-20T17:43:34.660Z,2.25
2022-10-20T17:46:04.541Z,2.42
2022-10-20T17:51:10.812Z,2.30
2022-10-20T17:53:40.580Z,2.17
2022-10-20T17:56:21.863Z,2.47
2022-10-20T17:58:51.074Z,2.40
2022-10-20T18:01:32.814Z,2.55
2022-10-20T18:04:08.613Z,2.67
2022-10-20T18:06:36.462Z,2.20
2022-10-20T18:09:15.780Z,2.30
2022-10-20T18:11:48.034Z,2.47
2022-10-20T18:14:17.188Z,2.33
2022-10-20T18:16:45.268Z,2.28
2022-10-20T18:19:18.103Z,2.25
2022-10-20T18:21:51.348Z,2.55
2022-10-20T18:24:21.669Z,2.42
2022-10-20T18:26:48.984Z,2.30
2022-10-20T18:29:17.129Z,2.53
2022-10-20T18:31:48.049Z,2.65
2022-10-20T18:34:18.513Z,2.97
2022-10-20T18:36:46.511Z,2.50
2022-10-20T18:39:17.058Z,2.50
2022-10-20T18:41:47.453Z,2.42
2022-10-20T18:44:17.087Z,2.22
2022-10-20T18:46:46.181Z,2.60
2022-10-20T18:49:20.531Z,2.15
2022-10-20T18:51:48.569Z,2.53
2022-10-20T18:54:16.430Z,2.63
2022-10-20T18:56:46.583Z,2.75
2022-10-20T18:59:16.499Z,2.40
2022-10-20T19:04:13.213Z,2.33
2022-10-20T19:06:46.487Z,2.35
2022-10-20T19:09:20.022Z,2.45
2022-10-20T19:14:16.919Z,2.30
2022-10-20T19:16:48.758Z,3.08
2022-10-20T19:19:19.049Z,2.97
2022-10-20T19:21:46.963Z,2.47
2022-10-20T19:25:08.707Z,3.38
2022-10-20T19:27:35.970Z,2.50
2022-10-20T19:30:04.287Z,2.60
2022-10-20T19:32:42.934Z,2.85
2022-10-20T19:35:11.291Z,2.70
2022-10-20T19:37:43.727Z,3.10
2022-10-20T19:40:12.289Z,2.83
2022-10-20T19:42:40.086Z,2.95
2022-10-20T19:45:13.132Z,3.13
2022-10-20T19:47:40.835Z,3.00
2022-10-20T19:50:11.097Z,2.70
2022-10-20T19:52:39.309Z,3.13
2022-10-20T19:55:11.965Z,2.80
2022-10-20T19:57:41.448Z,3.22
2022-10-20T20:00:12.060Z,3.17
2022-10-20T20:02:41.702Z,2.95
2022-10-20T20:05:12.062Z,3.30
2022-10-20T20:07:40.625Z,3.08
2022-10-20T20:10:11.307Z,3.05
2022-10-20T20:12:41.088Z,3.58
2022-10-20T20:15:11.299Z,2.95
2022-10-20T20:17:55.658Z,2.70
2022-10-20T20:20:25.866Z,2.80
2022-10-20T20:22:55.452Z,3.08
2022-10-20T20:25:23.234Z,3.25
2022-10-20T20:27:53.852Z,3.30
2022-10-20T20:41:24.510Z,3.13
2022-10-20T20:43:56.618Z,3.85
2022-10-20T20:57:54.514Z,4.28
2022-10-20T21:26:28.357Z,4.57
2022-10-20T21:29:54.552Z,4.40
2022-10-20T22:06:14.668Z,4.35
2022-10-20T22:39:25.082Z,5.15
2022-10-20T22:42:00.371Z,5.30
2022-10-20T22:44:35.865Z,5.10
2022-10-20T22:47:05.553Z,5.53
2022-10-20T22:49:33.181Z,6.22
2022-10-20T22:52:03.453Z,5.50
2022-10-20T22:54:31.650Z,5.75
2022-10-20T22:57:15.464Z,5.50
2022-10-20T22:59:49.534Z,5.60
2022-10-20T23:03:01.234Z,5.28
2022-10-20T23:05:56.012Z,5.90
2022-10-20T23:08:27.383Z,6.13
2022-10-20T23:11:18.935Z,5.45
2022-10-20T23:13:59.586Z,5.70
2022-10-20T23:16:35.197Z,4.95
2022-10-20T23:19:15.021Z,5.45
2022-10-20T23:21:45.409Z,5.35
2022-10-20T23:24:14.840Z,5.00
2022-10-20T23:26:48.549Z,5.55
2022-10-20T23:29:18.549Z,5.38
2022-10-20T23:32:10.869Z,5.13
2022-10-20T23:34:45.073Z,5.72
2022-10-20T23:37:15.645Z,5.80
2022-10-20T23:39:48.827Z,5.32
2022-10-20T23:42:22.501Z,5.53
2022-10-20T23:47:39.272Z,6.13
2022-10-20T23:50:13.263Z,5.38
2022-10-20T23:52:51.097Z,5.38
2022-10-20T23:55:19.337Z,5.95
2022-10-20T23:57:49.457Z,5.35
